Frey Ranch - Fallon, Nevada Weather observations

Data are for observation ending at time listed.
 Day   Time    Ave.   Ave.  Ave.  Vector   Max.   Stn.    Total    Solar   Ave.  
  of    of     Air    Rel.  Wind   Wind    Wind   Baro.  Precip.   Rad.    Soil  
Year   Day     Temp.  Hum.  Speed  Dir.    Gust   Pres.                    Temp. 
2016   (PST)    F      %     mph   deg.    mph     mb.     in.     W/m2     F   
------------------------------------------------------------------------------
 122    0:00   40.1    62    1.8   238      4.2   999.0    0.00       0    61.9
 122    0:10   41.8    58    0.4   208      1.8   999.0    0.00       0    61.8
 122    0:20   41.7    59    1.8   294      2.7   999.0    0.00       0    61.8
 122    0:30   42.7    57    0.8   308      2.7   999.0    0.00       0    61.8
 122    0:40   41.9    57    2.2   133      9.5   999.0    0.00       0    61.8
 122    0:50   39.1    64    1.2   113      3.9   999.0    0.00       0    61.7
 122    1:00   38.8    65    1.6   248      3.0   999.0    0.00       0    61.7
 122    1:10   39.4    64    3.2   303      4.2   999.0    0.00       0    61.6
 122    1:20   41.9    60    2.5   308      3.6   999.0    0.00       0    61.6
 122    1:30   42.8    58    2.0   303      2.9   999.0    0.00       0    61.6
 122    1:40   42.2    59    2.5   330      3.4   999.0    0.00       0    61.5
 122    1:50   42.0    59    3.1   327      4.8   999.0    0.00       0    61.5
 122    2:00   39.7    64    4.7   313      7.2   999.0    0.00       0    61.4
 122    2:10   38.8    66    2.5   311      3.9   999.0    0.00       0    61.4
 122    2:20   40.3    64    3.3   311      5.1   999.0    0.00       0    61.4
 122    2:30   39.8    64    3.5   306      5.9   999.0    0.00       0    61.3
 122    2:40   39.9    64    1.9   312      6.1   999.0    0.00       0    61.3
 122    2:50   38.5    67    2.8   100      8.7   999.0    0.00       0    61.2
 122    3:00   37.3    68    1.8   179      4.6   999.0    0.00       0    61.2
 122    3:10   35.1    74    2.8   308      3.6   999.0    0.00       0    61.1
 122    3:20   36.3    73    1.1   304      2.4   999.0    0.00       0    61.1
 122    3:30   37.7    71    2.3   309      3.5   999.0    0.00       0    61.0
 122    3:40   39.4    69    1.9   316      3.5   999.0    0.00       0    61.0
 122    3:50   39.7    68    2.2   296      3.6   999.0    0.00       0    60.9
 122    4:00   39.7    67    0.3   353      2.2   999.0    0.00       0    60.9
 122    4:10   38.1    66    2.3   243      4.2   999.0    0.00       0    60.8
 122    4:20   36.3    69    2.6   268      5.0   999.0    0.00       0    60.7
 122    4:30   35.8    70    2.0   283      4.2   999.0    0.00       0    60.7
 122    4:40   37.1    70    3.1   298      4.7   999.0    0.00       0    60.6
 122    4:50   37.2    71    3.7   302      6.2   999.0    0.00       1    60.6
 122    5:00   38.3    70    3.3   307      5.8   999.0    0.00       4    60.5
 122    5:10   38.6    70    3.3   301      5.3   999.0    0.00       9    60.5
 122    5:20   39.8    68    1.8   302      4.3   999.0    0.00      19    60.4
 122    5:30   40.3    66    1.2   291      4.1   999.0    0.00      41    60.3
 122    5:40   38.4    70    4.8   242      7.6   999.0    0.00      72    60.3
 122    5:50   39.4    69    3.2   300      5.6   999.0    0.00     109    60.2
 122    6:00   41.8    66    3.4   307      7.5   999.0    0.00     143    60.2
 122    6:10   43.9    64    2.8   309      6.9   999.0    0.00     173    60.1
 122    6:20   45.3    63    4.0   289      6.5   999.0    0.00     204    60.0
 122    6:30   46.4    61    3.7   317      6.4   999.0    0.00     236    60.0
 122    6:40   47.6    58    3.3   322      6.4   999.0    0.00     268    59.9
 122    6:50   48.8    55    2.0   339      5.9   999.0    0.00     301    59.8
 122    7:00   49.8    53    2.1   320      4.8   999.0    0.00     334    59.8
 122    7:10   50.7    51    1.4   324      4.3   999.0    0.00     367    59.7
 122    7:20   51.6    50    2.2   352      5.9   999.0    0.00     401    59.6
 122    7:30   52.4    48    1.2     9      3.4   999.0    0.00     435    59.6
 122    7:40   52.8    47    1.9    87      3.7   999.0    0.00     467    59.5
 122    7:50   53.3    47    1.6    24      4.5   999.0    0.00     501    59.5
 122    8:00   54.5    46    1.8     6      4.1   999.0    0.00     532    59.4
 122    8:10   55.1    45    1.7    32      4.6   999.0    0.00     563    59.4
 122    8:20   57.2    42    1.4    21      3.9   999.0    0.00     590    59.3
 122    8:30   57.3    41    1.8   335      4.7   999.0    0.00     623    59.3
 122    8:40   57.2    41    1.3   353      3.7   999.0    0.00     655    59.2
 122    8:50   57.1    40    2.5   334      5.7   999.0    0.00     682    59.2
 122    9:00   57.5    40    3.4     4      7.5   999.0    0.00     711    59.1
 122    9:10   58.3    38    3.4    76      7.1   999.0    0.00     738    59.1
 122    9:20   58.5    37    2.9    30      7.1   999.0    0.00     765    59.1
 122    9:30   58.9    36    3.0    69      6.5   999.0    0.00     791    59.1
 122    9:40   59.9    34    2.0    87      5.1   999.0    0.00     814    59.0
 122    9:50   60.6    33    2.3   343      6.0   999.0    0.00     836    59.0
 122   10:00   60.6    33    2.7    41      6.3   999.0    0.00     860    59.0
 122   10:10   61.4    32    2.3   266      6.1   999.0    0.00     877    59.0
 122   10:20   61.7    32    3.0   148      6.9   999.0    0.00     908    59.0
 122   10:30   61.6    32    3.9   182      9.8   999.0    0.00    1001    59.0
 122   10:40   62.1    31    5.0    78     13.7   999.0    0.00    1018    59.0
 122   10:50   61.9    31    3.8     8      9.2   999.0    0.00     851    59.1
 122   11:00   62.0    31    3.0   300      6.8   999.0    0.00     929    59.1
 122   11:10   62.9    30    2.7   270      6.0   999.0    0.00     890    59.1
 122   11:20   63.1    30    4.2   272      8.3   999.0    0.00    1034    59.1
 122   11:30   62.9    29    5.4   273     12.5   999.0    0.00    1028    59.2
 122   11:40   64.0    28    3.3   312      7.8   999.0    0.00    1073    59.3
 122   11:50   64.9    26    3.3   169      7.1   999.0    0.00    1145    59.3
 122   12:00   64.1    27    4.7   127     11.0   999.0    0.00    1036    59.4
 122   12:10   64.7    26    3.6   240      7.6   999.0    0.00    1122    59.4
 122   12:20   66.2    26    3.5   328      8.3   999.0    0.00     956    59.5
 122   12:30   66.2    26    3.4   329      8.1   999.0    0.00    1115    59.6
 122   12:40   65.9    26    4.8   311      8.4   999.0    0.00     355    59.7
 122   12:50   65.8    26    5.7   292     12.0   999.0    0.00    1171    59.8
 122   13:00   65.3    26    7.3   264     11.5   999.0    0.00     393    59.9
 122   13:10   64.0    26    5.1   281      9.1   999.0    0.00     351    60.0
 122   13:20   64.5    26    4.1   287     10.1   999.0    0.00     612    60.1
 122   13:30   66.4    24    4.1   238      8.0   999.0    0.00     991    60.2
 122   13:40   66.8    24    5.9   225     10.4   999.0    0.00    1069    60.3
 122   13:50   67.7    23    3.0   157      8.7   999.0    0.00    1134    60.4
 122   14:00   69.0    23    3.4    80      9.7   999.0    0.00     911    60.5
 122   14:10   67.8    24    3.8   318      9.6   999.0    0.00     448    60.6
 122   14:20   66.7    24    2.5    21      7.2   999.0    0.00     444    60.8
 122   14:30   66.6    25    2.9    11      7.8   999.0    0.00     254    60.9
 122   14:40   66.0    26    2.8    40      6.4   999.0    0.00     177    61.0
 122   14:50   64.8    28    4.0   357      9.8   999.0    0.00     140    61.2
 122   15:00   63.9    28    2.4    14      8.4   999.0    0.00     124    61.3
 122   15:10   63.1    31    8.8   112     12.8   999.0    0.00     131    61.4
 122   15:20   62.5    34    6.5   169      9.7   999.0    0.00     179    61.6
 122   15:30   62.0    36    8.1   172     13.4   999.0    0.00     203    61.7
 122   15:40   61.9    36   10.2   169     16.2   999.0    0.00     211    61.8
 122   15:50   61.6    38   11.6   169     15.2   999.0    0.00     385    61.9
 122   16:00   63.5    33   10.3   176     19.8   999.0    0.00     605    62.1
 122   16:10   64.0    32   11.6   165     20.6   999.0    0.00     598    62.2
 122   16:20   64.5    30   10.0   159     14.2   999.0    0.00     569    62.3
 122   16:30   64.3    30    9.2   157     13.7   999.0    0.00     437    62.4
 122   16:40   63.7    31    7.8   162     11.9   999.0    0.00     281    62.6
 122   16:50   63.0    32    5.8   170      9.5   999.0    0.00     164    62.7
 122   17:00   62.4    34    4.7   177      7.4   999.0    0.00     134    62.8
 122   17:10   61.4    37    4.8   172      6.7   999.0    0.00      68    62.9
 122   17:20   60.9    36    4.6   155      6.8   999.0    0.00      59    63.0
 122   17:30   60.2    38    5.0   129      6.8   999.0    0.00      63    63.1
 122   17:40   59.7    38    5.0   140      6.9   999.0    0.00      69    63.2
 122   17:50   59.6    40    4.5   146      6.0   999.0    0.00      73    63.2
 122   18:00   59.5    40    4.1   155      5.9   999.0    0.00      83    63.3
 122   18:10   59.8    39    3.9   158      6.7   999.0    0.00      82    63.4
 122   18:20   59.6    40    3.6   156      5.0   999.0    0.00      65    63.5
 122   18:30   58.6    41    4.0   146      6.9   999.0    0.00      25    63.6
 122   18:40   58.2    40    2.2   136      6.5   999.0    0.00      11    63.6
 122   18:50   58.4    37    4.0   120      6.7   999.0    0.00       5    63.7
 122   19:00   59.5    35    2.7    84      5.8   999.0    0.00       2    63.8
 122   19:10   59.1    34    3.0   108      5.4   999.0    0.00       0    63.8
 122   19:20   58.7    35    0.6   105      1.7   999.0    0.00       0    63.9
 122   19:30   57.6    36    0.0     0      0.0   999.0    0.00       0    63.9
 122   19:40   57.0    37    0.0     0      0.0   999.0    0.00       0    64.0
 122   19:50   55.7    38    0.0     0      0.0   999.0    0.00       0    64.0
 122   20:00   55.0    39    0.3   105      1.4   999.0    0.00       0    64.0
 122   20:10   55.1    39    0.1   105      0.9   999.0    0.00       0    64.1
 122   20:20   56.1    39    0.8    78      1.5   999.0    0.00       0    64.1
 122   20:30   56.7    38    1.7    39      2.4   999.0    0.00       0    64.1
 122   20:40   55.2    39    0.1    38      1.5   999.0    0.00       0    64.1
 122   20:50   53.9    42    0.6    39      1.5   999.0    0.00       0    64.1
 122   21:00   53.5    43    2.4    23      3.4   999.0    0.00       0    64.1
 122   21:10   51.8    49    2.2     4      3.7   999.0    0.00       0    64.1
 122   21:20   51.4    51    1.2   350      2.4   999.0    0.00       0    64.1
 122   21:30   48.0    54    0.1   270      1.3   999.0    0.00       0    64.1
 122   21:40   46.0    58    0.2   200      1.3   999.0    0.00       0    64.1
 122   21:50   47.2    57    1.3    61      3.1   999.0    0.00       0    64.1
 122   22:00   51.1    50    2.2    69      2.9   999.0    0.00       0    64.1
 122   22:10   50.4    51    1.8    88      2.8   999.0    0.00       0    64.1
 122   22:20   49.0    54    1.6   105      2.5   999.0    0.00       0    64.1
 122   22:30   49.5    54    2.5    94      3.5   999.0    0.00       0    64.1
 122   22:40   47.9    58    2.1    96      3.8   999.0    0.00       0    64.1
 122   22:50   46.3    60    1.4   262      3.3   999.0    0.00       0    64.1
 122   23:00   45.4    60    1.9   258      3.6   999.0    0.00       0    64.0
 122   23:10   45.8    61    1.5   287      2.0   999.0    0.00       0    64.0
 122   23:20   45.6    62    2.2   296      2.8   999.0    0.00       0    64.0
 122   23:30   45.8    61    0.7   308      2.4   999.0    0.00       0    63.9
 122   23:40   45.4    60    0.1   307      1.2   999.0    0.00       0    63.9
 122   23:50   45.3    61    1.2   292      1.7   999.0    0.00       0    63.9

Return to Frey Ranch - Fallon, Nevada graphs page.


Western Regional Climate Center,wrcc@dri.edu